Time;durP1;ratioP1;P1;durP2;ratioP2;P2;SDS_P1;SDS_P2;PMS_P1;PMS_P2;Temp;Humidity;BMP_temperature;BMP_pressure;BME280_temperature;BME280_humidity;BME280_pressure;Samples;Min_cycle;Max_cycle;Signal;HPM_P1;HPM_P2
2021/04/21 00:03:09;;;;;;;49.15;24.35;;;;;;;10.18;100.00;99959.20;713535;1205;115101;-79
2021/04/21 00:18:33;;;;;;;28.80;17.37;;;;;;;9.87;100.00;99946.25;713480;1177;114058;-80
2021/04/21 00:33:57;;;;;;;33.13;18.03;;;;;;;9.67;100.00;99943.63;713810;1206;114392;-79
2021/04/21 00:49:23;;;;;;;46.17;21.00;;;;;;;9.22;100.00;99941.53;714343;1204;114294;-79
2021/04/21 01:04:44;;;;;;;40.35;20.90;;;;;;;8.90;100.00;99926.86;716436;1166;115105;-77
2021/04/21 01:20:12;;;;;;;42.98;21.80;;;;;;;8.53;100.00;99898.66;714013;1203;114707;-79
2021/04/21 01:35:34;;;;;;;54.00;24.43;;;;;;;8.29;100.00;99887.50;714564;1183;113701;-78
2021/04/21 01:50:54;;;;;;;32.03;19.33;;;;;;;8.11;100.00;99889.87;714254;1202;114461;-79
2021/04/21 02:06:55;;;;;;;51.03;24.33;;;;;;;7.92;100.00;99889.78;713960;1202;114438;-78
2021/04/21 02:22:33;;;;;;;43.10;22.27;;;;;;;7.64;100.00;99881.59;714828;1194;114370;-79
2021/04/21 02:38:14;;;;;;;50.23;25.53;;;;;;;7.57;100.00;99880.45;714275;1200;114360;-81
2021/04/21 02:54:07;;;;;;;45.50;24.85;;;;;;;7.49;100.00;99874.05;715328;1205;113686;-82
2021/04/21 03:09:44;;;;;;;38.80;20.70;;;;;;;7.21;100.00;99883.30;715279;1200;114347;-82
2021/04/21 03:25:21;;;;;;;71.43;31.95;;;;;;;7.06;100.00;99876.70;719576;1177;113553;-75
2021/04/21 03:40:41;;;;;;;98.53;47.73;;;;;;;6.98;100.00;99865.11;714289;1202;115554;-76
2021/04/21 03:56:04;;;;;;;85.23;36.37;;;;;;;7.01;100.00;99856.22;713990;1205;113498;-77
2021/04/21 04:11:50;;;;;;;79.58;36.78;;;;;;;6.88;100.00;99848.54;713639;1202;114021;-77
2021/04/21 04:27:16;;;;;;;35.00;21.50;;;;;;;6.89;100.00;99854.57;714142;1200;113690;-77
2021/04/21 04:42:37;;;;;;;42.08;21.70;;;;;;;7.15;100.00;99860.31;713749;1205;114355;-76
2021/04/21 04:57:58;;;;;;;56.03;25.10;;;;;;;7.33;100.00;99858.82;713826;1200;113685;-77
2021/04/21 05:13:23;;;;;;;59.67;32.23;;;;;;;7.76;100.00;99870.16;713800;1182;113567;-74
2021/04/21 05:29:10;;;;;;;40.10;24.78;;;;;;;7.79;100.00;99875.11;713920;1176;114205;-74
2021/04/21 05:44:57;;;;;;;57.30;34.17;;;;;;;7.75;100.00;99883.34;713678;1201;113526;-75
2021/04/21 06:01:00;;;;;;;38.60;23.83;;;;;;;8.62;100.00;99875.14;713736;1203;113792;-74
2021/04/21 06:16:23;;;;;;;40.57;24.23;;;;;;;9.44;100.00;99880.25;714051;1203;114081;-76
2021/04/21 06:31:49;;;;;;;50.95;29.25;;;;;;;10.30;100.00;99866.30;714033;1203;113834;-77
2021/04/21 06:47:18;;;;;;;39.50;24.13;;;;;;;11.12;100.00;99880.39;713768;1200;114087;-77
2021/04/21 07:02:51;;;;;;;34.57;22.83;;;;;;;12.23;100.00;99879.16;714119;1202;115901;-78
2021/04/21 07:18:15;;;;;;;28.17;18.53;;;;;;;12.69;100.00;99870.17;713886;1206;114473;-77
2021/04/21 07:33:43;;;;;;;35.95;19.53;;;;;;;13.48;99.67;99876.77;714040;1200;115142;-76
2021/04/21 07:49:07;;;;;;;23.15;16.35;;;;;;;14.70;96.25;99875.92;714199;1200;115010;-76
2021/04/21 08:04:29;;;;;;;18.23;10.98;;;;;;;16.03;86.41;99873.97;713765;1202;115253;-75
2021/04/21 08:19:58;;;;;;;18.83;12.63;;;;;;;15.02;78.71;99866.17;713919;1203;114778;-74
2021/04/21 08:35:19;;;;;;;20.15;14.45;;;;;;;14.61;78.91;99874.28;714033;1197;114256;-78
2021/04/21 08:50:41;;;;;;;20.83;12.53;;;;;;;15.49;76.71;99877.56;713693;1201;115879;-78
2021/04/21 09:06:03;;;;;;;10.87;7.07;;;;;;;16.82;68.71;99867.27;713926;1203;114796;-78
2021/04/21 09:21:31;;;;;;;10.18;7.03;;;;;;;18.59;64.01;99862.98;713845;1203;114196;-78
2021/04/21 09:36:52;;;;;;;10.47;8.33;;;;;;;18.25;60.11;99847.91;714087;1203;114619;-75
2021/04/21 09:52:12;;;;;;;9.58;7.10;;;;;;;18.63;56.16;99852.78;713970;1202;115017;-77
2021/04/21 10:07:32;;;;;;;6.00;3.90;;;;;;;20.08;54.65;99833.70;714076;1203;113464;-77
2021/04/21 10:22:53;;;;;;;10.90;7.00;;;;;;;19.85;51.36;99833.34;713829;1206;114673;-76
2021/04/21 10:38:16;;;;;;;15.13;9.35;;;;;;;20.40;51.16;99817.02;713732;1203;113621;-77
2021/04/21 10:53:42;;;;;;;7.95;5.28;;;;;;;20.44;47.95;99819.06;713772;1184;113754;-79
2021/04/21 11:09:03;;;;;;;7.80;4.03;;;;;;;21.37;45.91;99818.73;713729;1181;114750;-80
2021/04/21 11:24:23;;;;;;;5.40;3.40;;;;;;;22.24;45.80;99792.01;714105;1205;114378;-80
2021/04/21 11:39:44;;;;;;;7.13;4.67;;;;;;;22.85;44.70;99791.25;713920;1203;113944;-79
2021/04/21 11:55:05;;;;;;;4.57;3.33;;;;;;;23.06;42.90;99788.03;714637;1202;114676;-80
2021/04/21 12:10:29;;;;;;;8.17;3.27;;;;;;;21.11;41.93;99768.06;715111;1201;113531;-80
2021/04/21 12:25:50;;;;;;;6.30;2.70;;;;;;;22.17;41.98;99753.06;717061;1200;114600;-78
2021/04/21 12:41:19;;;;;;;4.68;3.00;;;;;;;22.14;41.10;99756.19;714490;1204;113532;-79
2021/04/21 12:56:41;;;;;;;23.03;8.27;;;;;;;22.96;39.91;99736.95;714448;1202;115123;-77
2021/04/21 13:12:05;;;;;;;7.10;4.17;;;;;;;22.27;39.50;99729.30;714235;1203;114162;-81
2021/04/21 13:41:20;;;;;;;17.57;10.63;;;;;;;21.01;41.41;99698.41;715827;1190;27674;-79
2021/04/21 13:56:41;;;;;;;102.50;19.90;;;;;;;20.78;41.74;99704.31;717000;1174;113741;-84
2021/04/21 14:12:02;;;;;;;18.63;7.48;;;;;;;19.36;42.54;99687.30;715444;1174;113813;-75
2021/04/21 14:27:22;;;;;;;7.15;4.55;;;;;;;20.87;40.33;99699.55;715001;1199;113973;-79
2021/04/21 14:42:43;;;;;;;8.70;6.03;;;;;;;18.88;42.68;99698.94;715060;1175;113230;-77
2021/04/21 14:58:04;;;;;;;9.15;5.75;;;;;;;18.24;44.94;99690.48;715054;1174;113338;-76
2021/04/21 15:13:25;;;;;;;8.20;5.30;;;;;;;17.79;46.22;99685.59;715773;1175;114762;-77
2021/04/21 15:28:47;;;;;;;34.50;15.58;;;;;;;17.52;46.95;99675.86;716556;1200;114391;-76
2021/04/21 15:44:09;;;;;;;59.03;32.08;;;;;;;17.27;48.14;99681.62;715935;1199;114095;-76
2021/04/21 15:59:30;;;;;;;89.23;44.73;;;;;;;17.27;49.25;99686.92;716127;1200;114780;-77
2021/04/21 16:14:50;;;;;;;41.45;21.03;;;;;;;17.38;49.26;99678.44;717064;1180;114109;-76
2021/04/21 16:30:13;;;;;;;61.00;22.40;;;;;;;17.08;48.72;99667.23;715713;1202;113694;-75
2021/04/21 16:45:34;;;;;;;137.10;71.30;;;;;;;16.78;49.28;99672.66;714993;1202;113782;-76
2021/04/21 17:00:58;;;;;;;25.73;13.80;;;;;;;16.64;49.41;99669.06;715527;1199;115500;-77
2021/04/21 17:16:19;;;;;;;41.23;21.25;;;;;;;16.12;50.33;99674.45;715537;1199;115736;-77
2021/04/21 17:31:42;;;;;;;33.35;18.88;;;;;;;15.76;50.86;99674.41;715377;1174;114293;-76
2021/04/21 17:47:03;;;;;;;36.15;15.10;;;;;;;15.48;50.56;99678.52;716335;1198;113777;-76
2021/04/21 18:02:23;;;;;;;30.13;15.15;;;;;;;15.22;51.66;99686.06;715571;1197;113983;-77
2021/04/21 18:17:45;;;;;;;31.58;16.05;;;;;;;14.94;52.51;99692.73;715890;1196;113757;-75
2021/04/21 18:33:10;;;;;;;36.87;21.27;;;;;;;14.89;53.43;99702.20;715836;1185;113762;-75
2021/04/21 18:48:31;;;;;;;18.57;11.43;;;;;;;14.77;55.53;99725.56;715695;1173;114156;-76
2021/04/21 19:03:53;;;;;;;32.53;22.98;;;;;;;14.53;57.17;99729.13;715840;1175;113635;-76
2021/04/21 19:19:15;;;;;;;28.15;19.63;;;;;;;14.23;58.35;99735.08;715995;1201;113724;-77
2021/04/21 19:34:35;;;;;;;35.55;19.43;;;;;;;14.02;58.71;99743.57;716381;1186;114605;-77
2021/04/21 19:49:56;;;;;;;25.40;13.35;;;;;;;13.70;60.58;99763.78;716566;1181;113924;-75
2021/04/21 20:05:17;;;;;;;27.45;13.70;;;;;;;13.10;63.72;99821.06;716096;1176;113793;-75
2021/04/21 20:20:38;;;;;;;28.70;16.63;;;;;;;12.34;67.58;99853.58;715494;1202;115007;-77
2021/04/21 20:35:59;;;;;;;20.95;12.40;;;;;;;11.83;69.02;99877.90;715594;1202;113889;-77
2021/04/21 20:51:19;;;;;;;28.20;14.30;;;;;;;11.19;74.27;99843.05;715489;1199;115298;-77
2021/04/21 21:06:39;;;;;;;51.90;21.35;;;;;;;10.71;78.45;99860.78;715355;1183;114950;-77
2021/04/21 21:22:00;;;;;;;23.45;10.95;;;;;;;10.38;81.13;99866.44;715581;1199;113917;-77
2021/04/21 21:37:20;;;;;;;20.77;11.03;;;;;;;9.99;83.98;99877.84;715299;1177;113881;-78
2021/04/21 21:52:42;;;;;;;18.30;10.43;;;;;;;10.02;85.40;99892.45;715191;1199;113942;-76
2021/04/21 22:08:03;;;;;;;24.60;12.10;;;;;;;10.07;86.41;99892.02;715560;1200;113886;-76
2021/04/21 22:23:24;;;;;;;16.80;9.85;;;;;;;9.75;87.69;99904.50;715886;1200;113854;-77
2021/04/21 22:38:44;;;;;;;7.20;4.53;;;;;;;8.60;81.44;99931.14;714948;1198;114556;-77
2021/04/21 22:54:06;;;;;;;10.00;4.88;;;;;;;8.57;82.11;99937.46;714975;1198;113675;-77
2021/04/21 23:09:27;;;;;;;8.37;4.23;;;;;;;7.47;86.86;99961.30;714966;1199;114546;-77
2021/04/21 23:24:47;;;;;;;6.53;4.03;;;;;;;7.53;85.10;99918.20;715005;1199;114154;-78
2021/04/21 23:40:10;;;;;;;7.85;3.50;;;;;;;7.46;86.76;99904.82;714931;1200;114353;-77
2021/04/21 23:55:31;;;;;;;7.63;3.43;;;;;;;7.44;88.03;99857.97;714893;1199;114414;-77
